Time;durP1;ratioP1;P1;durP2;ratioP2;P2;SDS_P1;SDS_P2;PMS_P1;PMS_P2;Temp;Humidity;BMP_temperature;BMP_pressure;BME280_temperature;BME280_humidity;BME280_pressure;Samples;Min_cycle;Max_cycle;Signal;HPM_P1;HPM_P2
2022/11/24 00:02:12;;;;;;;27.87;11.17;;;;;;;13.93;79.35;97996.72;6282207;22;20156;-91
2022/11/24 00:04:39;;;;;;;33.37;11.10;;;;;;;13.94;78.86;97997.56;6309823;22;20197;-91
2022/11/24 00:07:05;;;;;;;31.87;10.97;;;;;;;13.98;78.40;97997.16;6309548;22;20148;-92
2022/11/24 00:09:32;;;;;;;26.10;10.33;;;;;;;13.97;78.74;98006.00;6282147;22;20242;-91
2022/11/24 00:12:00;;;;;;;33.97;11.33;;;;;;;14.00;78.80;98003.13;6309138;22;20678;-91
2022/11/24 00:14:26;;;;;;;27.67;10.13;;;;;;;14.02;78.89;98008.25;6309110;22;20144;-91
2022/11/24 00:16:52;;;;;;;35.57;10.53;;;;;;;14.02;79.18;98010.88;6308901;22;20171;-90
2022/11/24 00:19:18;;;;;;;28.97;10.03;;;;;;;14.05;79.28;98014.09;6308997;22;20232;-90
2022/11/24 00:21:43;;;;;;;27.13;10.97;;;;;;;14.08;79.19;98016.50;6282084;22;20169;-90
2022/11/24 00:24:11;;;;;;;29.03;10.37;;;;;;;14.07;78.94;98014.81;6308942;22;20159;-91
2022/11/24 00:26:36;;;;;;;26.03;11.20;;;;;;;14.04;79.12;98009.81;6308764;22;20603;-90
2022/11/24 00:29:04;;;;;;;35.73;10.57;;;;;;;14.12;79.20;98012.63;6281848;22;20222;-90
2022/11/24 00:31:34;;;;;;;30.70;11.80;;;;;;;14.20;79.00;98016.44;6282019;22;20548;-91
2022/11/24 00:34:02;;;;;;;27.20;10.67;;;;;;;14.23;78.70;98009.06;6282367;22;20175;-91
2022/11/24 00:36:30;;;;;;;35.93;10.63;;;;;;;14.28;78.60;98011.34;6281955;22;20148;-91
2022/11/24 00:38:58;;;;;;;30.00;11.00;;;;;;;14.30;78.36;98012.03;6308874;22;20563;-90
2022/11/24 00:41:25;;;;;;;32.60;10.33;;;;;;;14.35;77.98;98009.88;6308826;22;20209;-91
2022/11/24 00:43:51;;;;;;;27.47;10.80;;;;;;;14.36;77.90;98017.63;6308765;22;20162;-91
2022/11/24 00:46:18;;;;;;;23.73;9.40;;;;;;;14.37;77.63;98015.84;6281692;22;20607;-90
2022/11/24 00:48:45;;;;;;;33.37;10.30;;;;;;;14.35;77.62;98017.78;6308680;22;20156;-90
2022/11/24 00:51:13;;;;;;;33.73;10.50;;;;;;;14.36;77.50;98030.00;6308611;22;20148;-92
2022/11/24 00:53:39;;;;;;;28.53;9.60;;;;;;;14.38;77.15;98033.34;6281609;22;20152;-90
2022/11/24 00:56:05;;;;;;;26.00;9.87;;;;;;;14.41;77.32;98027.81;6308696;22;20473;-90
2022/11/24 00:58:32;;;;;;;26.93;9.97;;;;;;;14.42;77.12;98024.19;6281650;22;20181;-90
2022/11/24 01:01:15;;;;;;;35.80;10.30;;;;;;;14.44;77.35;98031.00;6308937;22;20147;-91
2022/11/24 01:03:42;;;;;;;27.23;10.33;;;;;;;14.44;77.42;98022.28;6308852;22;20148;-91
2022/11/24 01:06:11;;;;;;;26.23;10.23;;;;;;;14.45;77.25;98023.94;6308414;22;20206;-91
2022/11/24 01:08:40;;;;;;;24.63;9.87;;;;;;;14.48;76.91;98021.03;6308866;22;20180;-90
2022/11/24 01:11:13;;;;;;;26.17;10.27;;;;;;;14.48;76.92;98021.03;6308661;22;20144;-91
2022/11/24 01:13:40;;;;;;;28.50;10.23;;;;;;;14.50;77.03;98021.72;6308962;22;20137;-91
2022/11/24 01:16:12;;;;;;;22.93;10.33;;;;;;;14.52;76.77;98014.50;6305198;22;20184;-91
2022/11/24 01:18:39;;;;;;;32.57;11.40;;;;;;;14.53;76.67;98009.13;6308925;22;20141;-91
2022/11/24 01:21:06;;;;;;;26.87;11.00;;;;;;;14.53;76.60;98011.75;6308649;22;20147;-90
2022/11/24 01:23:32;;;;;;;24.37;10.53;;;;;;;14.56;76.58;98014.13;6281525;22;20583;-90
2022/11/24 01:26:02;;;;;;;24.47;10.37;;;;;;;14.55;75.98;98015.09;6308979;22;20172;-90
2022/11/24 01:28:29;;;;;;;29.07;9.80;;;;;;;14.53;76.42;98005.66;6281447;22;20605;-91
2022/11/24 01:31:01;;;;;;;33.37;11.37;;;;;;;14.52;76.21;98003.97;6281359;22;20496;-91
2022/11/24 01:33:28;;;;;;;32.40;10.97;;;;;;;14.50;76.11;98000.63;6281355;22;20194;-90
2022/11/24 01:35:56;;;;;;;28.37;11.17;;;;;;;14.47;76.16;98006.16;6308262;22;20231;-91
2022/11/24 01:38:22;;;;;;;28.87;11.50;;;;;;;14.45;76.23;98001.03;6308217;22;20146;-91
2022/11/24 01:40:47;;;;;;;27.70;10.67;;;;;;;14.47;76.00;98004.38;6308289;22;20148;-91
2022/11/24 01:43:20;;;;;;;21.17;9.90;;;;;;;14.37;75.63;98006.13;6308621;22;20473;-90
2022/11/24 01:45:46;;;;;;;23.53;10.57;;;;;;;14.36;75.36;97998.38;6308485;22;20170;-90
2022/11/24 01:48:19;;;;;;;26.77;10.13;;;;;;;14.37;75.24;97994.75;6308121;22;20223;-90
2022/11/24 01:50:52;;;;;;;29.13;10.00;;;;;;;14.33;74.93;97988.09;6308458;22;20212;-90
2022/11/24 01:53:19;;;;;;;22.33;9.03;;;;;;;14.22;74.42;97999.50;6281260;22;20454;-90
2022/11/24 01:55:45;;;;;;;20.67;8.80;;;;;;;14.03;74.54;98008.13;6308092;22;20525;-91
2022/11/24 01:58:16;;;;;;;17.27;7.63;;;;;;;13.84;75.34;97996.63;6281087;22;20157;-91
2022/11/24 02:00:44;;;;;;;18.43;9.03;;;;;;;13.85;75.08;97993.88;6281031;22;20144;-91
2022/11/24 02:03:19;;;;;;;19.97;8.47;;;;;;;13.88;75.04;97996.25;6308395;22;20144;-90
2022/11/24 02:05:54;;;;;;;16.60;7.87;;;;;;;13.83;74.62;97982.66;6308233;22;20594;-90
2022/11/24 02:08:38;;;;;;;16.53;7.80;;;;;;;13.75;74.03;97990.34;6307965;22;20449;-90
2022/11/24 02:11:04;;;;;;;18.30;7.73;;;;;;;13.69;73.86;97988.22;6308193;22;20496;-91
2022/11/24 02:13:33;;;;;;;18.50;7.40;;;;;;;13.69;73.34;97996.13;6307874;22;20170;-90
2022/11/24 02:15:59;;;;;;;25.57;8.53;;;;;;;13.68;72.58;98004.16;6277597;22;20159;-91
2022/11/24 02:18:25;;;;;;;20.90;7.50;;;;;;;13.67;72.62;98010.38;6280953;22;20629;-90
2022/11/24 02:20:51;;;;;;;14.73;8.17;;;;;;;13.69;72.09;98003.19;6280906;22;20148;-91
2022/11/24 02:23:38;;;;;;;14.80;6.27;;;;;;;13.68;71.65;97999.72;6307848;22;20143;-90
2022/11/24 02:26:18;;;;;;;17.50;6.97;;;;;;;13.57;71.63;98002.41;6308537;22;20170;-91
2022/11/24 02:28:45;;;;;;;17.40;7.07;;;;;;;13.56;71.31;98003.38;6308546;22;20150;-92
2022/11/24 02:31:11;;;;;;;15.93;7.17;;;;;;;13.51;71.11;98011.66;6308018;22;20144;-91
2022/11/24 02:33:38;;;;;;;18.60;7.77;;;;;;;13.38;70.97;98015.41;6308312;22;20269;-90
2022/11/24 02:36:04;;;;;;;15.83;6.10;;;;;;;13.35;70.53;98015.66;6308105;22;20562;-90
2022/11/24 02:38:34;;;;;;;22.80;8.03;;;;;;;13.33;70.63;98007.91;6307758;22;20147;-90
2022/11/24 02:41:04;;;;;;;15.37;7.60;;;;;;;13.28;71.21;98009.22;6308326;22;20154;-90
2022/11/24 02:43:36;;;;;;;16.17;7.10;;;;;;;13.27;70.65;98010.19;6280784;22;20554;-90
2022/11/24 02:46:02;;;;;;;24.47;6.30;;;;;;;13.14;71.89;98012.13;6307675;22;20160;-91
2022/11/24 02:48:29;;;;;;;14.53;5.47;;;;;;;13.06;73.23;98011.88;6307703;22;20601;-91
2022/11/24 02:50:54;;;;;;;23.30;6.87;;;;;;;13.06;73.82;98014.50;6308049;22;20227;-91
2022/11/24 02:53:20;;;;;;;23.87;6.67;;;;;;;13.09;74.78;98011.66;6308201;22;20182;-90
2022/11/24 02:55:46;;;;;;;29.37;7.90;;;;;;;13.09;75.18;98011.66;6307872;22;20154;-91
2022/11/24 02:58:13;;;;;;;22.07;6.13;;;;;;;13.12;76.06;98014.06;6280653;22;20166;-90
2022/11/24 03:00:39;;;;;;;42.00;7.17;;;;;;;13.16;76.07;98010.19;6280589;22;20149;-90
2022/11/24 03:03:05;;;;;;;15.57;6.93;;;;;;;13.17;76.74;98012.72;6280621;22;20224;-90
2022/11/24 03:05:31;;;;;;;28.53;8.00;;;;;;;13.22;76.46;98014.97;6280676;22;20175;-90
2022/11/24 03:07:57;;;;;;;21.93;7.67;;;;;;;13.23;77.19;98012.22;6307582;22;20168;-91
2022/11/24 03:10:23;;;;;;;16.40;8.87;;;;;;;13.27;76.69;98013.66;6307451;22;20157;-91
2022/11/24 03:12:49;;;;;;;18.27;8.27;;;;;;;13.29;77.38;98016.97;6307453;22;20228;-92
2022/11/24 03:15:14;;;;;;;21.67;10.03;;;;;;;13.30;76.95;98023.09;6308100;22;20171;-91
2022/11/24 03:17:41;;;;;;;22.03;9.03;;;;;;;13.25;77.21;98015.56;6307337;22;20489;-90
2022/11/24 03:20:07;;;;;;;27.90;8.80;;;;;;;13.28;77.37;98025.00;6280526;22;20155;-90
2022/11/24 03:22:32;;;;;;;24.30;7.87;;;;;;;13.32;77.14;98027.28;6309360;22;20147;-91
2022/11/24 03:24:59;;;;;;;18.50;8.43;;;;;;;13.42;76.62;98032.59;6282608;22;20264;-90
2022/11/24 03:27:25;;;;;;;20.40;7.97;;;;;;;13.40;76.26;98026.63;6282729;22;20640;-91
2022/11/24 03:29:51;;;;;;;15.63;7.90;;;;;;;13.36;76.23;98027.88;6309600;22;20151;-91
2022/11/24 03:32:18;;;;;;;16.67;6.77;;;;;;;13.31;76.02;98027.41;6309546;22;20495;-90
2022/11/24 03:34:43;;;;;;;19.13;8.63;;;;;;;13.29;75.78;98029.31;6309816;22;20584;-90
2022/11/24 03:37:09;;;;;;;22.47;8.90;;;;;;;13.23;75.86;98020.09;6309468;22;20175;-89
2022/11/24 03:39:34;;;;;;;27.50;11.90;;;;;;;13.20;76.00;98016.91;6310100;22;20151;-90
2022/11/24 03:42:00;;;;;;;24.60;10.37;;;;;;;13.20;76.28;98025.63;6282404;22;20155;-91
2022/11/24 03:44:27;;;;;;;25.80;10.37;;;;;;;13.23;76.03;98033.25;6309717;22;20171;-91
2022/11/24 03:46:53;;;;;;;25.07;10.87;;;;;;;13.22;75.97;98036.03;6309574;22;20172;-91
2022/11/24 03:49:19;;;;;;;23.37;10.10;;;;;;;13.18;75.87;98035.44;6309956;22;20260;-91
2022/11/24 03:51:45;;;;;;;16.30;9.47;;;;;;;13.17;76.24;98046.09;6282383;22;20574;-91
2022/11/24 03:54:11;;;;;;;19.10;9.57;;;;;;;13.14;76.31;98041.06;6309665;22;20173;-91
2022/11/24 03:56:36;;;;;;;21.63;9.90;;;;;;;13.14;76.28;98041.91;6282335;22;20147;-90
2022/11/24 03:59:02;;;;;;;17.47;9.00;;;;;;;13.18;75.97;98045.16;6282743;22;20205;-90
2022/11/24 04:01:27;;;;;;;21.80;9.00;;;;;;;13.21;75.75;98048.34;6309398;22;20147;-90
2022/11/24 04:03:54;;;;;;;20.60;10.37;;;;;;;13.22;75.75;98051.81;6282167;22;20150;-91
2022/11/24 04:06:21;;;;;;;18.43;9.00;;;;;;;13.20;75.05;98056.38;6282102;22;20186;-90
2022/11/24 04:08:46;;;;;;;19.53;8.80;;;;;;;13.21;75.02;98063.28;6309960;22;20566;-91
2022/11/24 04:12:42;;;;;;;21.60;9.00;;;;;;;13.20;75.08;98056.38;6282200;22;20158;-92
2022/11/24 04:13:57;;;;;;;23.13;9.03;;;;;;;13.19;75.13;98067.84;6309013;22;20132;-91
2022/11/24 04:16:22;;;;;;;24.83;11.17;;;;;;;13.21;74.82;98056.22;6276965;22;20574;-92
2022/11/24 04:18:52;;;;;;;28.93;11.10;;;;;;;13.14;75.08;98059.47;6277162;22;20155;-91
2022/11/24 04:21:19;;;;;;;30.47;12.50;;;;;;;13.09;76.46;98059.00;6277501;22;20155;-92
2022/11/24 04:23:45;;;;;;;29.43;13.20;;;;;;;12.97;76.74;98058.16;6278574;22;20555;-92
2022/11/24 04:26:11;;;;;;;36.53;12.63;;;;;;;12.79;78.39;98060.44;6276854;22;20294;-92
2022/11/24 04:28:37;;;;;;;26.80;12.80;;;;;;;12.73;78.71;98055.69;6278377;22;20178;-91
2022/11/24 04:31:04;;;;;;;24.30;11.93;;;;;;;12.64;79.20;98072.16;6276983;22;20160;-91
2022/11/24 04:33:31;;;;;;;23.33;11.63;;;;;;;12.64;79.68;98066.91;6276538;22;20227;-91
2022/11/24 04:35:56;;;;;;;36.60;13.20;;;;;;;12.73;79.16;98075.88;6278045;22;20150;-90
2022/11/24 04:38:22;;;;;;;27.43;12.37;;;;;;;12.63;79.53;98080.19;6276748;22;20726;-91
2022/11/24 04:40:47;;;;;;;20.93;10.03;;;;;;;12.57;79.07;98073.63;6276981;22;20153;-90
2022/11/24 04:43:13;;;;;;;25.37;11.33;;;;;;;12.47;79.36;98084.94;6278113;22;20223;-91
2022/11/24 04:45:38;;;;;;;20.90;11.27;;;;;;;12.33;79.45;98086.00;6277180;22;20223;-90
2022/11/24 04:48:05;;;;;;;22.67;11.40;;;;;;;12.40;79.50;98075.84;6278092;22;20214;-92
2022/11/24 04:50:30;;;;;;;29.27;11.43;;;;;;;12.36;79.01;98074.41;6276728;22;20173;-91
2022/11/24 04:52:57;;;;;;;25.63;11.93;;;;;;;12.26;79.42;98072.47;6277785;22;20215;-90
2022/11/24 04:55:24;;;;;;;23.30;9.77;;;;;;;12.22;79.89;98075.47;6278020;22;20524;-91
2022/11/24 04:57:51;;;;;;;24.53;10.17;;;;;;;12.15;79.71;98084.78;6278531;22;20145;-91
2022/11/24 05:00:19;;;;;;;16.33;7.83;;;;;;;12.13;79.07;98091.94;6276793;22;20149;-92
2022/11/24 05:02:45;;;;;;;20.57;8.30;;;;;;;12.20;78.09;98083.47;6278454;22;20208;-91
2022/11/24 05:05:12;;;;;;;20.03;8.20;;;;;;;12.25;77.14;98085.75;6276733;22;20213;-91
2022/11/24 05:07:39;;;;;;;16.17;7.00;;;;;;;12.21;77.62;98090.38;6278294;22;20462;-91
2022/11/24 05:12:58;;;;;;;16.93;7.63;;;;;;;12.23;77.57;98096.38;6277728;22;20175;-90
2022/11/24 05:15:25;;;;;;;17.83;8.03;;;;;;;12.31;76.76;98101.06;6277770;22;20142;-91
2022/11/24 05:17:52;;;;;;;20.43;7.43;;;;;;;12.25;77.04;98093.63;6281392;22;20211;-90
2022/11/24 05:20:19;;;;;;;19.33;9.10;;;;;;;12.20;77.14;98093.97;6280908;22;20607;-90
2022/11/24 05:22:46;;;;;;;20.03;8.77;;;;;;;12.21;77.30;98092.19;6280733;22;20157;-89
2022/11/24 05:25:15;;;;;;;19.77;9.00;;;;;;;12.28;76.59;98096.88;6307187;22;20235;-90
2022/11/24 05:27:42;;;;;;;15.80;7.23;;;;;;;12.27;76.91;98100.44;6308230;22;20463;-91
2022/11/24 05:30:09;;;;;;;22.50;8.47;;;;;;;12.33;76.39;98101.78;6308744;22;20149;-90
2022/11/24 05:32:36;;;;;;;20.17;7.30;;;;;;;12.21;77.62;98114.03;6281173;22;20259;-90
2022/11/24 05:35:04;;;;;;;14.03;6.90;;;;;;;12.36;77.27;98119.09;6308369;22;20160;-90
2022/11/24 05:37:30;;;;;;;14.70;7.07;;;;;;;12.40;77.09;98117.88;6308274;22;20155;-90
2022/11/24 05:39:57;;;;;;;22.27;9.13;;;;;;;12.50;77.03;98122.31;6281086;22;20245;-90
2022/11/24 05:42:39;;;;;;;19.60;8.47;;;;;;;12.57;76.88;98123.56;6280892;22;20180;-90
2022/11/24 05:45:18;;;;;;;16.97;7.97;;;;;;;12.64;76.43;98122.13;6280482;22;20256;-91
2022/11/24 05:47:45;;;;;;;17.73;8.10;;;;;;;12.75;75.96;98127.41;6308586;22;20134;-90
2022/11/24 05:50:15;;;;;;;19.77;7.70;;;;;;;12.77;75.32;98128.09;6308529;22;20154;-91
2022/11/24 05:52:42;;;;;;;23.90;9.30;;;;;;;12.61;76.09;98130.25;6308143;22;20145;-89
2022/11/24 05:55:09;;;;;;;29.43;8.40;;;;;;;12.55;76.94;98132.50;6307192;22;20151;-91
2022/11/24 05:57:34;;;;;;;17.17;8.57;;;;;;;12.53;76.87;98137.88;6307138;22;20145;-91
2022/11/24 06:00:00;;;;;;;18.03;8.57;;;;;;;12.52;76.86;98138.00;6280042;22;20154;-92
2022/11/24 06:02:25;;;;;;;17.93;8.87;;;;;;;12.54;77.22;98142.19;6306139;22;20150;-91
2022/11/24 06:04:51;;;;;;;16.83;8.87;;;;;;;12.57;77.68;98135.84;6306654;22;20154;-91
2022/11/24 06:07:17;;;;;;;24.90;8.53;;;;;;;12.65;78.27;98136.94;6306207;22;20655;-91
2022/11/24 06:09:42;;;;;;;20.30;8.67;;;;;;;12.81;78.09;98136.59;6305746;22;20146;-90
2022/11/24 06:12:10;;;;;;;20.13;9.13;;;;;;;13.28;76.94;98130.28;6278373;22;20162;-90
2022/11/24 06:14:36;;;;;;;18.13;8.73;;;;;;;13.61;75.00;98130.19;6278842;22;20258;-90
2022/11/24 06:17:01;;;;;;;22.97;10.13;;;;;;;13.75;73.18;98140.47;6305320;22;20532;-90
2022/11/24 06:19:27;;;;;;;29.87;9.53;;;;;;;13.79;72.87;98144.50;6278413;22;20163;-91
2022/11/24 06:21:53;;;;;;;19.90;9.93;;;;;;;13.61;72.67;98143.38;6278822;22;20151;-90
2022/11/24 06:24:18;;;;;;;17.63;7.97;;;;;;;13.57;73.08;98141.94;6308488;22;20151;-91
2022/11/24 06:26:44;;;;;;;23.30;7.60;;;;;;;13.74;72.67;98148.47;6307699;22;20203;-91
2022/11/24 06:29:09;;;;;;;18.77;6.87;;;;;;;14.05;71.30;98143.22;6280932;22;20162;-90
2022/11/24 06:31:35;;;;;;;20.43;7.07;;;;;;;14.42;70.50;98148.09;6308203;22;20441;-91
2022/11/24 06:34:00;;;;;;;19.00;7.77;;;;;;;14.70;69.04;98148.28;6307897;22;20151;-91
2022/11/24 06:36:26;;;;;;;23.53;7.50;;;;;;;14.91;68.43;98145.59;6281146;22;20152;-91
2022/11/24 06:38:52;;;;;;;14.30;6.37;;;;;;;14.87;67.34;98154.75;6308094;22;20231;-90
2022/11/24 06:41:18;;;;;;;26.73;7.13;;;;;;;14.84;67.64;98156.81;6307789;22;20144;-91
2022/11/24 06:43:44;;;;;;;13.43;5.87;;;;;;;14.94;67.65;98158.53;6280697;22;20151;-91
2022/11/24 06:46:11;;;;;;;10.87;5.50;;;;;;;15.13;67.14;98157.78;6307576;22;20206;-91
2022/11/24 06:48:36;;;;;;;15.43;5.73;;;;;;;15.23;66.33;98170.06;6280756;22;20166;-92
2022/11/24 06:51:05;;;;;;;11.47;5.37;;;;;;;15.51;66.19;98167.69;6280692;22;20156;-90
2022/11/24 06:53:37;;;;;;;13.30;4.80;;;;;;;15.69;64.48;98171.34;6280745;22;20157;-90
2022/11/24 06:56:11;;;;;;;15.30;5.97;;;;;;;15.90;64.75;98164.16;6307804;22;20190;-90
2022/11/24 06:58:48;;;;;;;15.40;6.63;;;;;;;15.82;64.39;98177.22;6281626;22;20464;-91
2022/11/24 07:01:23;;;;;;;18.33;6.97;;;;;;;15.89;64.64;98173.06;6281898;22;20156;-91
2022/11/24 07:03:49;;;;;;;17.53;7.70;;;;;;;15.94;64.93;98170.84;6280666;22;20213;-91
2022/11/24 07:06:16;;;;;;;17.70;8.57;;;;;;;15.95;65.09;98173.34;6280496;22;20255;-91
2022/11/24 07:08:41;;;;;;;27.73;9.10;;;;;;;15.91;65.01;98177.22;6307578;22;20150;-91
2022/11/24 07:11:10;;;;;;;17.60;8.50;;;;;;;15.89;65.26;98176.53;6308047;22;20158;-91
2022/11/24 07:13:36;;;;;;;12.40;5.80;;;;;;;15.82;64.20;98171.94;6280732;22;20158;-91
2022/11/24 07:16:17;;;;;;;14.33;6.27;;;;;;;15.71;64.65;98172.06;6308220;22;20204;-91
2022/11/24 07:18:45;;;;;;;10.57;3.73;;;;;;;15.70;62.28;98178.28;6250265;22;20236;-91
2022/11/24 07:21:11;;;;;;;9.80;4.30;;;;;;;15.70;63.73;98175.66;6250310;22;20163;-91
2022/11/24 07:23:38;;;;;;;10.27;4.60;;;;;;;15.62;63.22;98191.34;6250045;22;20589;-92
2022/11/24 07:26:05;;;;;;;13.40;6.43;;;;;;;15.62;63.93;98186.91;6249980;22;20190;-91
2022/11/24 07:28:31;;;;;;;9.53;4.50;;;;;;;15.78;62.67;98183.75;6276922;22;20570;-92
2022/11/24 07:30:56;;;;;;;10.87;4.30;;;;;;;15.78;63.38;98178.44;6249789;22;20174;-92
2022/11/24 07:33:24;;;;;;;13.03;5.83;;;;;;;15.75;62.92;98181.38;6249849;22;20154;-91
2022/11/24 07:35:52;;;;;;;12.50;4.70;;;;;;;15.67;63.93;98183.88;6250017;22;20227;-92
2022/11/24 07:38:19;;;;;;;9.27;3.97;;;;;;;15.72;62.05;98189.59;6249958;22;20148;-93
2022/11/24 07:40:45;;;;;;;19.23;6.53;;;;;;;15.74;63.93;98187.63;6250221;22;20151;-91
2022/11/24 07:43:10;;;;;;;18.03;8.00;;;;;;;15.83;65.72;98190.28;6276798;22;20152;-91
2022/11/24 07:45:36;;;;;;;7.60;4.23;;;;;;;16.02;64.98;98188.66;6249871;22;20237;-92
2022/11/24 07:48:01;;;;;;;10.13;3.70;;;;;;;16.00;63.18;98186.16;6249715;22;20156;-91
2022/11/24 07:50:27;;;;;;;10.40;4.53;;;;;;;15.85;62.90;98188.34;6276854;22;20187;-92
2022/11/24 07:52:52;;;;;;;10.03;4.37;;;;;;;15.86;63.22;98183.91;6249787;22;20163;-91
2022/11/24 07:55:18;;;;;;;7.83;4.70;;;;;;;15.91;63.75;98186.97;6249753;22;20243;-91
2022/11/24 07:57:43;;;;;;;10.17;4.40;;;;;;;16.09;63.84;98184.50;6276484;22;20155;-90
2022/11/24 08:00:10;;;;;;;12.67;3.97;;;;;;;16.20;64.12;98171.13;6249840;22;20168;-91
2022/11/24 08:02:35;;;;;;;8.83;3.77;;;;;;;16.32;62.82;98181.44;6249973;22;20231;-91
2022/11/24 08:05:01;;;;;;;9.03;4.13;;;;;;;16.49;62.38;98178.09;6277183;22;20176;-92
2022/11/24 08:07:26;;;;;;;9.90;4.10;;;;;;;16.59;61.98;98178.09;6249788;22;20148;-92
2022/11/24 08:09:52;;;;;;;8.73;4.03;;;;;;;16.62;60.19;98183.09;6251567;22;20163;-91
2022/11/24 08:12:21;;;;;;;9.47;3.60;;;;;;;16.62;60.24;98182.25;6252101;22;20478;-92
2022/11/24 08:14:50;;;;;;;9.67;3.93;;;;;;;16.54;61.43;98189.09;6279011;22;20164;-91
2022/11/24 08:17:18;;;;;;;11.57;3.70;;;;;;;16.40;61.84;98178.91;6278349;22;20192;-92
2022/11/24 08:19:44;;;;;;;9.40;4.20;;;;;;;16.36;62.04;98181.97;6251552;22;20615;-92
2022/11/24 08:22:10;;;;;;;7.20;3.73;;;;;;;16.57;61.16;98180.88;6278143;22;20208;-93
2022/11/24 08:24:36;;;;;;;12.07;4.20;;;;;;;16.66;59.92;98178.38;6251544;22;20156;-91
2022/11/24 08:27:06;;;;;;;13.50;4.27;;;;;;;16.63;61.04;98182.13;6251510;22;20638;-92
2022/11/24 08:29:32;;;;;;;10.43;4.37;;;;;;;16.72;61.49;98183.13;6251518;22;20144;-92
2022/11/24 08:31:57;;;;;;;11.87;4.63;;;;;;;16.86;59.75;98183.47;6252511;22;20157;-93
2022/11/24 08:34:24;;;;;;;9.20;4.47;;;;;;;16.84;60.26;98179.31;6251809;22;20171;-91
2022/11/24 08:36:51;;;;;;;11.23;4.20;;;;;;;16.98;60.47;98179.69;6251336;22;20163;-92
2022/11/24 08:39:17;;;;;;;8.37;3.60;;;;;;;17.11;59.14;98187.34;6251244;22;20148;-91
2022/11/24 08:41:43;;;;;;;10.77;4.43;;;;;;;17.38;59.65;98184.69;6278075;22;20197;-93
2022/11/24 08:44:09;;;;;;;8.00;3.63;;;;;;;17.51;57.20;98182.53;6251536;22;20594;-92
2022/11/24 08:46:35;;;;;;;10.90;5.30;;;;;;;17.52;57.06;98176.28;6251300;22;20515;-92
2022/11/24 08:49:09;;;;;;;7.50;4.00;;;;;;;17.57;55.91;98182.00;6251484;22;20160;-92
2022/11/24 08:51:35;;;;;;;9.70;3.90;;;;;;;17.73;55.98;98184.84;6251574;22;20145;-92
2022/11/24 08:54:03;;;;;;;8.63;4.20;;;;;;;17.82;56.30;98171.69;6251343;22;20168;-92
2022/11/24 08:56:32;;;;;;;9.30;3.93;;;;;;;17.86;55.15;98173.88;6251480;22;20153;-93
2022/11/24 08:58:58;;;;;;;14.50;5.00;;;;;;;17.70;55.30;98179.84;6252502;22;20156;-92
2022/11/24 09:01:28;;;;;;;8.90;4.77;;;;;;;17.75;56.74;98180.22;6251398;22;20240;-93
2022/11/24 09:04:22;;;;;;;7.90;4.20;;;;;;;17.90;54.55;98177.06;6251669;22;20299;-93
2022/11/24 09:06:48;;;;;;;13.00;4.37;;;;;;;17.83;55.33;98175.97;6251993;22;20184;-92
2022/11/24 09:09:15;;;;;;;9.00;3.87;;;;;;;17.96;54.63;98179.94;6277968;22;20479;-93
2022/11/24 09:11:41;;;;;;;7.10;3.73;;;;;;;17.90;54.14;98180.53;6251282;22;20152;-93
2022/11/24 09:14:06;;;;;;;9.83;4.63;;;;;;;18.07;53.55;98184.19;6251128;22;20594;-93
2022/11/24 09:16:34;;;;;;;12.07;4.63;;;;;;;18.10;53.10;98183.91;6278063;22;20160;-92
2022/11/24 09:19:14;;;;;;;;;;;;;;;;;;;;;
2022/11/24 09:21:43;;;;;;;8.57;4.73;;;;;;;17.98;53.74;98179.78;6278365;22;20224;-93
2022/11/24 09:24:18;;;;;;;10.53;4.60;;;;;;;17.83;53.63;98166.22;6251425;22;20214;-94
2022/11/24 09:26:56;;;;;;;;;;;;;;;;;;;;;
2022/11/24 09:29:22;;;;;;;8.40;4.00;;;;;;;17.62;55.01;98163.84;6278729;22;20511;-94
2022/11/24 09:31:52;;;;;;;10.17;4.33;;;;;;;17.60;55.35;98167.63;6251079;22;20180;-92
2022/11/24 09:34:17;;;;;;;9.40;3.77;;;;;;;17.64;56.15;98167.16;6251174;22;20160;-93
2022/11/24 09:36:43;;;;;;;12.10;4.63;;;;;;;17.72;55.89;98158.47;6251488;22;20156;-92
2022/11/24 09:39:10;;;;;;;10.80;4.37;;;;;;;17.77;55.90;98162.34;6251095;22;20166;-94
2022/11/24 09:41:57;;;;;;;13.60;3.73;;;;;;;17.68;56.20;98163.25;6251194;22;20154;-93
2022/11/24 09:44:54;;;;;;;7.73;4.17;;;;;;;18.08;55.89;98160.16;6251337;22;20164;-93
2022/11/24 09:47:41;;;;;;;10.17;3.90;;;;;;;18.56;54.08;98154.50;6251315;22;20150;-93
2022/11/24 09:50:15;;;;;;;8.03;4.20;;;;;;;18.63;53.47;98152.06;6251479;22;20154;-93
2022/11/24 09:53:07;;;;;;;9.07;3.90;;;;;;;18.77;52.61;98147.00;6251379;22;20203;-92
2022/11/24 09:55:46;;;;;;;9.87;4.20;;;;;;;18.96;51.82;98149.47;6251517;22;20150;-93
2022/11/24 09:58:53;;;;;;;8.50;4.03;;;;;;;18.78;52.24;98146.03;6251310;22;20140;-93
2022/11/24 10:01:36;;;;;;;8.43;3.80;;;;;;;19.03;51.56;98145.19;6251736;22;20217;-93
2022/11/24 10:04:15;;;;;;;6.93;3.20;;;;;;;19.08;50.72;98150.00;6251803;22;20148;-93
2022/11/24 10:06:49;;;;;;;6.87;3.83;;;;;;;19.18;50.37;98145.41;6252543;22;20532;-94
2022/11/24 10:09:23;;;;;;;11.50;3.33;;;;;;;19.30;49.72;98140.66;6251740;22;20155;-94
2022/11/24 10:12:28;;;;;;;7.53;3.73;;;;;;;19.48;49.66;98146.75;6251728;22;20141;-91
2022/11/24 10:15:24;;;;;;;8.13;3.53;;;;;;;19.18;50.08;98149.94;6252060;22;20147;-93
2022/11/24 10:18:29;;;;;;;7.80;3.77;;;;;;;19.26;49.93;98145.47;6246485;23;20179;-92
2022/11/24 10:21:15;;;;;;;8.40;3.27;;;;;;;19.37;48.45;98136.38;6246820;23;20440;-92
2022/11/24 10:24:18;;;;;;;;;;;;;;;;;;;;;
2022/11/24 10:26:57;;;;;;;6.90;3.43;;;;;;;20.04;47.73;98122.97;6247771;23;20253;-93
2022/11/24 10:29:52;;;;;;;11.07;3.80;;;;;;;20.07;47.97;98119.97;6246302;23;20160;-93
2022/11/24 10:33:19;;;;;;;6.37;2.87;;;;;;;20.20;45.89;98124.81;6245551;23;20168;-92
2022/11/24 10:37:23;;;;;;;11.90;3.37;;;;;;;20.30;46.30;98122.03;6241414;22;20149;-93
2022/11/24 10:39:50;;;;;;;;;;;;;;;;;;;;;
2022/11/24 10:42:57;;;;;;;8.17;3.20;;;;;;;20.56;44.58;98120.03;6242755;22;20227;-93
2022/11/24 10:45:36;;;;;;;6.97;3.17;;;;;;;20.16;44.61;98119.00;6100766;23;20645;-93
2022/11/24 10:48:03;;;;;;;6.80;3.30;;;;;;;19.87;47.19;98113.31;6101560;23;20160;-92
2022/11/24 10:50:51;;;;;;;5.53;3.10;;;;;;;19.84;46.58;98113.63;6100847;23;20262;-93
2022/11/24 10:53:49;;;;;;;6.50;3.00;;;;;;;20.29;45.59;98107.88;6161409;23;20153;-93
2022/11/24 10:56:21;;;;;;;6.70;3.20;;;;;;;20.41;45.86;98114.56;6246063;23;20153;-93
2022/11/24 10:58:57;;;;;;;6.27;3.00;;;;;;;20.52;46.31;98108.06;6246564;23;20168;-93
2022/11/24 11:05:10;;;;;;;3.63;1.63;;;;;;;20.67;44.46;98103.72;6154476;23;20152;-94
2022/11/24 11:07:35;;;;;;;4.60;2.00;;;;;;;20.58;43.74;98105.53;6154518;23;20173;-91
2022/11/24 11:10:23;;;;;;;6.40;2.23;;;;;;;20.56;43.18;98102.22;6130021;23;20190;-94
2022/11/24 11:13:52;;;;;;;;;;;;;;;;;;;;;
2022/11/24 11:17:31;;;;;;;;;;;;;;;;;;;;;
2022/11/24 11:20:23;;;;;;;6.27;2.67;;;;;;;20.28;43.09;98105.41;6111042;23;20242;-93
2022/11/24 11:22:52;;;;;;;2.40;1.37;;;;;;;19.99;43.50;98103.19;6203959;23;20240;-93
2022/11/24 11:25:31;;;;;;;4.03;2.00;;;;;;;20.17;43.63;98106.53;6245455;23;20180;-92
2022/11/24 11:28:23;;;;;;;4.37;2.00;;;;;;;20.30;43.09;98104.22;6246130;23;20149;-92
2022/11/24 11:31:13;;;;;;;5.23;1.90;;;;;;;20.34;43.24;98110.03;6245486;23;20604;-93
2022/11/24 11:34:02;;;;;;;4.40;1.80;;;;;;;20.14;43.21;98106.84;6245406;23;20479;-93
2022/11/24 11:36:41;;;;;;;6.10;2.30;;;;;;;20.29;42.67;98107.03;6245487;23;20199;-93
2022/11/24 11:39:36;;;;;;;4.50;1.60;;;;;;;20.43;43.22;98101.06;6246570;23;20141;-93
2022/11/24 11:42:17;;;;;;;8.97;2.43;;;;;;;20.17;42.90;98104.72;6244029;23;20190;-94
2022/11/24 11:44:48;;;;;;;6.43;2.00;;;;;;;20.35;44.38;98104.56;6247429;23;20141;-94
2022/11/24 11:48:00;;;;;;;;;;;;;;;;;;;;;
2022/11/24 11:50:43;;;;;;;6.63;2.40;;;;;;;20.44;43.26;98102.75;6249010;23;20517;-93
2022/11/24 11:53:25;;;;;;;5.63;2.20;;;;;;;20.37;43.23;98112.38;6247960;23;20145;-94
2022/11/24 11:56:15;;;;;;;12.10;2.07;;;;;;;20.01;44.01;98112.66;6247505;23;20196;-94
2022/11/24 11:59:17;;;;;;;11.93;3.53;;;;;;;19.62;44.87;98111.59;6248106;23;20579;-92
2022/11/24 12:02:03;;;;;;;5.90;2.30;;;;;;;19.66;44.71;98118.25;6247027;23;20176;-94